createdAt,value
2023-02-06T00:02:28.607Z,102985.09
2023-02-06T00:05:15.596Z,102989.50
2023-02-06T00:08:02.673Z,102999.97
2023-02-06T00:10:49.665Z,103006.06
2023-02-06T00:13:37.131Z,103001.63
2023-02-06T00:16:24.733Z,103001.56
2023-02-06T00:19:12.625Z,103005.09
2023-02-06T00:21:59.407Z,102998.00
2023-02-06T00:24:46.533Z,102999.78
2023-02-06T00:27:33.547Z,102990.09
2023-02-06T00:30:20.755Z,102999.72
2023-02-06T00:33:07.734Z,102990.00
2023-02-06T00:35:54.926Z,102994.44
2023-02-06T00:38:41.867Z,102999.66
2023-02-06T00:41:28.869Z,103000.44
2023-02-06T00:44:15.757Z,102995.94
2023-02-06T00:47:02.973Z,103011.72
2023-02-06T00:49:50.096Z,103008.19
2023-02-06T00:52:37.184Z,103015.09
2023-02-06T00:55:25.576Z,103024.75
2023-02-06T00:58:12.586Z,103027.34
2023-02-06T01:01:01.834Z,103032.56
2023-02-06T01:03:48.931Z,103014.03
2023-02-06T01:06:35.848Z,103024.59
2023-02-06T01:09:23.058Z,102973.28
2023-02-06T01:12:09.839Z,103030.63
2023-02-06T01:14:56.901Z,103044.53
2023-02-06T01:17:43.854Z,102982.53
2023-02-06T01:20:33.902Z,103044.50
2023-02-06T01:23:21.006Z,103049.66
2023-02-06T01:26:08.035Z,103056.63
2023-02-06T01:29:03.450Z,103056.44
2023-02-06T01:31:51.291Z,103014.03
2023-02-06T01:34:38.295Z,103037.75
2023-02-06T01:37:25.320Z,103076.56
2023-02-06T01:40:12.243Z,103063.94
2023-02-06T01:42:59.599Z,103087.75
2023-02-06T01:45:46.527Z,103085.97
2023-02-06T01:48:41.019Z,103092.00
2023-02-06T01:51:34.953Z,103045.03
2023-02-06T01:54:25.513Z,103096.22
2023-02-06T01:57:16.272Z,103111.88
2023-02-06T02:00:08.189Z,103106.50
2023-02-06T02:03:04.879Z,103095.56
2023-02-06T02:05:53.978Z,103079.50
2023-02-06T02:08:47.159Z,103113.78
2023-02-06T02:11:47.326Z,103125.19
2023-02-06T02:14:36.556Z,103128.56
2023-02-06T02:17:58.629Z,103134.50
2023-02-06T02:21:14.255Z,103130.91
2023-02-06T02:24:31.888Z,103145.59
2023-02-06T02:27:46.553Z,103154.19
2023-02-06T02:31:15.635Z,103130.25
2023-02-06T02:34:50.822Z,103141.69
2023-02-06T02:37:53.797Z,103144.19
2023-02-06T02:40:58.598Z,103149.31
2023-02-06T02:44:05.411Z,103156.19
2023-02-06T02:46:57.310Z,103132.38
2023-02-06T02:49:49.075Z,103116.06
2023-02-06T02:52:35.921Z,103156.84
2023-02-06T02:55:35.085Z,103161.97
2023-02-06T02:58:27.246Z,103124.13
2023-02-06T03:01:28.852Z,103140.91
2023-02-06T03:04:19.506Z,103149.53
2023-02-06T03:07:27.225Z,103160.78
2023-02-06T03:10:21.004Z,103167.75
2023-02-06T03:13:29.397Z,103180.72
2023-02-06T03:16:32.521Z,103168.47
2023-02-06T03:19:31.352Z,103172.75
2023-02-06T03:22:20.268Z,103161.34
2023-02-06T03:25:08.117Z,103164.72
2023-02-06T03:27:58.041Z,103171.66
2023-02-06T03:30:48.205Z,103174.19
2023-02-06T03:33:39.642Z,103187.19
2023-02-06T03:36:28.218Z,103176.66
2023-02-06T03:39:15.354Z,103185.25
2023-02-06T03:42:04.964Z,103186.03
2023-02-06T03:44:55.751Z,103172.69
2023-02-06T03:47:44.466Z,103180.69
2023-02-06T03:50:33.718Z,103189.31
2023-02-06T03:53:23.332Z,103156.53
2023-02-06T03:56:18.891Z,103174.34
2023-02-06T03:59:05.934Z,103164.66
2023-02-06T04:01:52.965Z,103182.09
2023-02-06T04:04:43.189Z,103172.41
2023-02-06T04:07:48.709Z,103114.84
2023-02-06T04:10:36.260Z,103160.00
2023-02-06T04:13:23.090Z,103137.75
2023-02-06T04:16:10.299Z,103180.69
2023-02-06T04:18:57.210Z,103180.59
2023-02-06T04:21:44.377Z,103172.13
2023-02-06T04:24:31.214Z,103203.94
2023-02-06T04:27:18.844Z,103193.31
2023-02-06T04:30:05.703Z,103196.66
2023-02-06T04:32:52.644Z,103201.88
2023-02-06T04:35:39.714Z,103199.94
2023-02-06T04:38:26.731Z,103218.16
2023-02-06T04:41:13.563Z,103223.25
2023-02-06T04:44:00.649Z,103216.16
2023-02-06T04:46:47.474Z,103210.88
2023-02-06T04:49:36.119Z,103212.50
2023-02-06T04:52:23.126Z,103209.72
2023-02-06T04:55:10.308Z,103211.44
2023-02-06T04:57:57.313Z,103212.25
2023-02-06T05:00:44.314Z,103217.38
2023-02-06T05:03:31.176Z,103221.69
2023-02-06T05:06:23.101Z,103221.59
2023-02-06T05:09:09.970Z,103161.16
2023-02-06T05:11:57.384Z,103216.16
2023-02-06T05:14:44.400Z,103205.66
2023-02-06T05:17:31.338Z,103191.34
2023-02-06T05:20:18.285Z,103215.84
2023-02-06T05:23:05.469Z,103199.97
2023-02-06T05:25:52.354Z,103206.16
2023-02-06T05:28:39.281Z,103212.94
2023-02-06T05:31:26.747Z,103224.16
2023-02-06T05:34:13.976Z,103206.38
2023-02-06T05:37:01.118Z,103212.59
2023-02-06T05:39:48.611Z,103211.44
2023-02-06T05:42:35.603Z,103223.75
2023-02-06T05:45:23.952Z,103227.22
2023-02-06T05:48:11.117Z,103203.03
2023-02-06T05:50:58.122Z,103225.19
2023-02-06T05:53:45.097Z,103245.22
2023-02-06T05:56:32.331Z,103257.25
2023-02-06T05:59:19.362Z,103272.16
2023-02-06T06:02:06.417Z,103260.75
2023-02-06T06:04:53.419Z,103271.94
2023-02-06T06:07:40.662Z,103247.91
2023-02-06T06:10:28.720Z,103267.47
2023-02-06T06:13:15.926Z,103270.84
2023-02-06T06:16:02.945Z,103275.13
2023-02-06T06:18:50.091Z,103276.81
2023-02-06T06:21:37.328Z,103263.63
2023-02-06T06:24:24.331Z,103266.97
2023-02-06T06:27:11.181Z,103276.44
2023-02-06T06:29:58.134Z,103265.78
2023-02-06T06:32:45.036Z,103172.63
2023-02-06T06:35:31.980Z,103253.56
2023-02-06T06:38:18.886Z,103260.38
2023-02-06T06:41:05.856Z,103263.78
2023-02-06T06:43:53.687Z,103270.66
2023-02-06T06:46:40.683Z,103272.34
2023-02-06T06:49:29.014Z,103273.97
2023-02-06T06:52:24.383Z,103271.31
2023-02-06T06:55:11.895Z,103258.69
2023-02-06T06:57:59.029Z,103266.81
2023-02-06T07:00:26.371Z,103226.56
2023-02-06T07:03:13.284Z,103278.91
2023-02-06T07:06:00.154Z,103274.50
2023-02-06T07:08:47.088Z,103276.28
2023-02-06T07:11:35.382Z,103265.81
2023-02-06T07:14:23.179Z,103218.06
2023-02-06T07:16:50.313Z,103263.94
2023-02-06T07:19:17.486Z,103231.03
2023-02-06T07:21:44.705Z,103272.66
2023-02-06T07:24:11.694Z,103262.13
2023-02-06T07:26:38.583Z,103261.34
2023-02-06T07:29:05.573Z,103259.69
2023-02-06T07:31:32.564Z,103259.69
2023-02-06T07:34:00.738Z,103264.06
2023-02-06T07:36:27.725Z,103260.59
2023-02-06T07:39:15.143Z,103231.44
2023-02-06T07:42:02.418Z,103258.84
2023-02-06T07:45:02.903Z,103252.84
2023-02-06T07:47:49.894Z,103252.00
2023-02-06T07:50:36.899Z,103252.00
2023-02-06T07:53:23.956Z,103199.31
2023-02-06T07:56:10.821Z,103264.63
2023-02-06T07:58:57.894Z,103278.00
2023-02-06T08:01:44.779Z,103285.47
2023-02-06T08:04:31.771Z,103298.03
2023-02-06T08:07:18.705Z,103282.38
2023-02-06T08:10:05.676Z,103255.72
2023-02-06T08:12:52.534Z,103275.41
2023-02-06T08:15:39.611Z,103215.22
2023-02-06T08:18:26.667Z,103258.78
2023-02-06T08:21:13.603Z,103244.91
2023-02-06T08:24:01.157Z,103258.03
2023-02-06T08:26:49.710Z,103259.81
2023-02-06T08:29:36.708Z,103213.78
2023-02-06T08:32:23.724Z,103248.69
2023-02-06T08:34:50.930Z,103240.03
2023-02-06T08:37:17.940Z,103234.88
2023-02-06T08:39:44.966Z,103235.75
2023-02-06T08:42:12.682Z,103247.13
2023-02-06T08:44:39.642Z,103254.13
2023-02-06T08:47:10.392Z,103253.34
2023-02-06T08:49:37.769Z,103258.63
2023-02-06T08:52:04.947Z,103251.75
2023-02-06T08:54:34.788Z,103250.97
2023-02-06T08:57:02.653Z,103215.75
2023-02-06T08:59:31.027Z,103233.72
2023-02-06T09:02:18.332Z,103229.47
2023-02-06T09:05:05.163Z,103226.97
2023-02-06T09:07:52.296Z,103223.56
2023-02-06T09:10:39.136Z,103228.09
2023-02-06T09:13:26.763Z,103228.06
2023-02-06T09:16:13.958Z,103236.16
2023-02-06T09:19:01.475Z,103228.44
2023-02-06T09:21:51.450Z,103238.97
2023-02-06T09:24:38.548Z,103217.03
2023-02-06T09:27:05.498Z,103230.56
2023-02-06T09:29:52.502Z,103237.66
2023-02-06T09:32:39.349Z,103237.81
2023-02-06T09:35:26.992Z,103236.22
2023-02-06T09:38:14.073Z,103222.22
2023-02-06T09:41:01.191Z,103226.94
2023-02-06T09:43:50.758Z,103218.34
2023-02-06T09:46:42.512Z,103219.38
2023-02-06T09:49:36.566Z,103209.94
2023-02-06T09:52:45.429Z,103208.38
2023-02-06T09:55:57.241Z,103214.59
2023-02-06T09:58:56.430Z,103226.16
2023-02-06T10:01:50.361Z,103226.25
2023-02-06T10:05:08.650Z,103213.34
2023-02-06T10:08:23.456Z,103214.34
2023-02-06T10:11:14.260Z,103199.72
2023-02-06T10:14:20.011Z,103201.59
2023-02-06T10:17:12.765Z,103201.75
2023-02-06T10:19:49.544Z,103201.91
2023-02-06T10:22:34.120Z,103184.59
2023-02-06T10:25:03.831Z,103187.34
2023-02-06T10:27:33.745Z,103174.28
2023-02-06T10:30:01.618Z,103174.53
2023-02-06T10:32:56.759Z,103174.69
2023-02-06T10:35:42.714Z,103174.88
2023-02-06T10:38:18.656Z,103175.88
2023-02-06T10:40:51.685Z,103169.97
2023-02-06T10:43:36.996Z,103174.44
2023-02-06T10:46:19.967Z,103169.34
2023-02-06T10:49:00.092Z,103163.41
2023-02-06T10:51:37.465Z,103170.50
2023-02-06T10:54:11.914Z,103162.78
2023-02-06T10:57:03.262Z,103168.16
2023-02-06T10:59:54.629Z,103074.38
2023-02-06T11:03:07.815Z,103139.94
2023-02-06T11:05:55.250Z,103179.06
2023-02-06T11:08:47.551Z,103168.72
2023-02-06T11:11:46.618Z,103156.66
2023-02-06T11:14:40.940Z,103151.47
2023-02-06T11:17:28.222Z,103153.41
2023-02-06T11:20:23.294Z,103149.19
2023-02-06T11:23:10.353Z,103144.03
2023-02-06T11:25:57.569Z,103126.56
2023-02-06T11:28:44.741Z,103140.81
2023-02-06T11:31:31.851Z,103143.53
2023-02-06T11:34:18.843Z,103145.38
2023-02-06T11:37:10.765Z,103145.50
2023-02-06T11:39:59.107Z,103147.38
2023-02-06T11:42:46.275Z,103134.03
2023-02-06T11:45:50.371Z,103160.69
2023-02-06T11:48:53.988Z,103166.91
2023-02-06T11:51:42.434Z,103153.91
2023-02-06T11:54:39.849Z,103155.78
2023-02-06T11:57:40.369Z,103150.69
2023-02-06T12:00:41.607Z,103142.06
2023-02-06T12:03:50.018Z,103140.41
2023-02-06T12:06:51.333Z,103123.00
2023-02-06T12:09:38.269Z,103130.09
2023-02-06T12:12:43.867Z,103118.66
2023-02-06T12:15:48.037Z,103146.72
2023-02-06T12:18:49.335Z,103146.88
2023-02-06T12:21:49.073Z,103137.34
2023-02-06T12:24:56.062Z,103149.63
2023-02-06T12:27:57.516Z,103137.44
2023-02-06T12:31:02.183Z,103148.91
2023-02-06T12:33:54.716Z,103134.97
2023-02-06T12:36:34.251Z,103119.16
2023-02-06T12:39:03.770Z,103106.09
2023-02-06T12:41:52.195Z,103116.72
2023-02-06T12:44:24.196Z,103115.03
2023-02-06T12:47:40.828Z,103117.69
2023-02-06T12:50:19.522Z,103125.59
2023-02-06T12:53:02.596Z,103136.13
2023-02-06T12:55:38.109Z,103137.03
2023-02-06T12:58:21.065Z,103111.53
2023-02-06T13:01:14.564Z,103129.28
2023-02-06T13:03:55.384Z,103085.19
2023-02-06T13:06:29.263Z,103110.97
2023-02-06T13:09:06.843Z,103100.53
2023-02-06T13:11:38.991Z,103091.78
2023-02-06T13:14:17.842Z,103089.19
2023-02-06T13:16:55.791Z,103091.88
2023-02-06T13:19:51.271Z,103092.78
2023-02-06T13:22:38.446Z,103086.72
2023-02-06T13:25:30.300Z,103089.38
2023-02-06T13:28:01.271Z,103092.88
2023-02-06T13:30:34.137Z,103091.19
2023-02-06T13:33:53.672Z,103091.22
2023-02-06T13:36:43.066Z,103093.88
2023-02-06T13:39:22.832Z,103110.50
2023-02-06T13:41:52.814Z,103093.94
2023-02-06T13:44:50.976Z,103117.56
2023-02-06T13:48:12.106Z,103126.31
2023-02-06T13:51:05.698Z,103154.38
2023-02-06T13:54:07.742Z,103151.75
2023-02-06T13:57:06.503Z,103151.78
2023-02-06T14:00:01.446Z,103153.53
2023-02-06T14:02:40.731Z,103156.16
2023-02-06T14:05:15.632Z,103149.22
2023-02-06T14:08:19.911Z,103134.31
2023-02-06T14:11:38.699Z,103133.41
2023-02-06T14:14:45.286Z,103137.84
2023-02-06T14:18:19.902Z,103122.13
2023-02-06T14:21:15.749Z,103119.50
2023-02-06T14:24:40.724Z,103116.88
2023-02-06T14:27:56.716Z,103105.31
2023-02-06T14:30:51.401Z,103113.38
2023-02-06T14:34:14.611Z,103107.31
2023-02-06T14:37:16.587Z,103105.53
2023-02-06T14:40:12.360Z,103102.06
2023-02-06T14:43:02.995Z,103094.22
2023-02-06T14:46:07.909Z,103069.50
2023-02-06T14:48:47.846Z,103098.59
2023-02-06T14:51:35.673Z,103102.97
2023-02-06T14:54:07.503Z,103083.75
2023-02-06T14:56:37.771Z,103049.41
2023-02-06T14:59:13.989Z,103057.53
2023-02-06T15:01:43.591Z,103054.06
2023-02-06T15:04:34.279Z,103044.41
2023-02-06T15:07:24.060Z,103032.94
2023-02-06T15:10:36.844Z,103047.06
2023-02-06T15:13:25.076Z,103032.88
2023-02-06T15:16:17.291Z,103013.34
2023-02-06T15:19:04.690Z,103051.47
2023-02-06T15:21:51.791Z,103061.88
2023-02-06T15:25:05.024Z,103069.81
2023-02-06T15:27:57.565Z,103079.47
2023-02-06T15:30:26.701Z,103079.53
2023-02-06T15:32:56.007Z,103073.38
2023-02-06T15:35:33.016Z,103072.50
2023-02-06T15:38:18.214Z,103060.25
2023-02-06T15:40:52.720Z,103063.81
2023-02-06T15:43:24.617Z,103065.53
2023-02-06T15:46:01.193Z,103063.81
2023-02-06T15:48:47.167Z,103075.19
2023-02-06T15:51:27.083Z,103062.06
2023-02-06T15:54:19.471Z,103066.50
2023-02-06T15:56:54.652Z,103074.38
2023-02-06T15:59:25.392Z,103084.88
2023-02-06T16:01:55.321Z,103069.06
2023-02-06T16:04:48.059Z,103077.00
2023-02-06T16:07:38.510Z,103076.13
2023-02-06T16:10:28.385Z,103063.91
2023-02-06T16:13:18.537Z,103063.94
2023-02-06T16:16:24.409Z,103068.28
2023-02-06T16:19:12.989Z,103063.06
2023-02-06T16:22:00.138Z,103042.09
2023-02-06T16:24:48.044Z,103038.56
2023-02-06T16:27:41.199Z,103036.88
2023-02-06T16:30:42.314Z,103030.72
2023-02-06T16:33:51.910Z,103033.34
2023-02-06T16:36:40.952Z,103016.78
2023-02-06T16:39:08.810Z,103009.75
2023-02-06T16:41:39.230Z,103009.78
2023-02-06T16:44:15.064Z,102970.03
2023-02-06T16:46:42.019Z,103002.81
2023-02-06T16:49:14.417Z,102980.78
2023-02-06T16:51:43.368Z,102948.13
2023-02-06T16:54:20.418Z,102994.09
2023-02-06T16:56:48.164Z,102980.06
2023-02-06T16:59:35.026Z,102988.00
2023-02-06T17:02:21.961Z,102974.91
2023-02-06T17:05:09.020Z,102959.16
2023-02-06T17:07:56.362Z,102976.66
2023-02-06T17:10:45.600Z,102988.94
2023-02-06T17:13:35.218Z,102958.16
2023-02-06T17:16:22.128Z,102968.81
2023-02-06T17:19:10.303Z,102974.03
2023-02-06T17:21:57.235Z,102970.63
2023-02-06T17:24:44.346Z,102964.53
2023-02-06T17:27:37.479Z,102957.56
2023-02-06T17:30:24.842Z,102975.09
2023-02-06T17:33:12.144Z,102975.09
2023-02-06T17:35:59.034Z,102960.13
2023-02-06T17:38:46.182Z,102961.13
2023-02-06T17:41:33.354Z,102953.25
2023-02-06T17:44:20.342Z,102941.03
2023-02-06T17:47:09.103Z,102951.56
2023-02-06T17:49:56.088Z,102926.00
2023-02-06T17:52:42.964Z,102964.72
2023-02-06T17:55:30.298Z,102947.22
2023-02-06T17:58:17.626Z,102942.84
2023-02-06T18:01:08.343Z,102946.38
2023-02-06T18:03:55.477Z,102939.34
2023-02-06T18:06:42.654Z,102950.78
2023-02-06T18:09:29.578Z,102949.94
2023-02-06T18:12:16.505Z,102957.81
2023-02-06T18:15:03.642Z,102948.22
2023-02-06T18:17:50.653Z,102950.84
2023-02-06T18:20:38.161Z,102935.97
2023-02-06T18:23:25.162Z,102939.50
2023-02-06T18:26:12.562Z,102903.44
2023-02-06T18:29:00.027Z,102902.78
2023-02-06T18:31:50.443Z,102833.06
2023-02-06T18:34:37.387Z,102900.19
2023-02-06T18:37:24.679Z,102880.94
2023-02-06T18:40:11.678Z,102871.31
2023-02-06T18:43:13.671Z,102865.22
2023-02-06T18:46:01.631Z,102866.13
2023-02-06T18:48:48.721Z,102854.59
2023-02-06T18:51:35.566Z,102881.88
2023-02-06T18:54:22.665Z,102865.06
2023-02-06T18:57:09.625Z,102865.03
2023-02-06T18:59:56.710Z,102890.63
2023-02-06T19:02:43.553Z,102880.19
2023-02-06T19:05:30.963Z,102869.66
2023-02-06T19:08:17.883Z,102850.28
2023-02-06T19:11:04.843Z,102874.94
2023-02-06T19:13:51.923Z,102867.06
2023-02-06T19:16:41.060Z,102867.91
2023-02-06T19:19:27.978Z,102866.97
2023-02-06T19:22:14.880Z,102874.09
2023-02-06T19:25:04.578Z,102866.22
2023-02-06T19:27:51.714Z,102854.84
2023-02-06T19:30:39.112Z,102834.72
2023-02-06T19:33:26.191Z,102848.75
2023-02-06T19:36:13.659Z,102821.38
2023-02-06T19:39:01.922Z,102810.13
2023-02-06T19:41:50.481Z,102807.59
2023-02-06T19:44:37.620Z,102815.44
2023-02-06T19:47:24.696Z,102787.28
2023-02-06T19:50:14.232Z,102770.56
2023-02-06T19:53:01.402Z,102804.16
2023-02-06T19:55:48.332Z,102803.28
2023-02-06T19:58:35.244Z,102799.78
2023-02-06T20:01:29.877Z,102802.41
2023-02-06T20:04:18.250Z,102797.16
2023-02-06T20:06:45.934Z,102785.69
2023-02-06T20:09:14.967Z,102800.69
2023-02-06T20:12:02.642Z,102791.03
2023-02-06T20:14:49.532Z,102793.75
2023-02-06T20:17:36.509Z,102794.59
2023-02-06T20:20:23.982Z,102797.25
2023-02-06T20:23:10.982Z,102799.06
2023-02-06T20:25:58.008Z,102791.13
2023-02-06T20:28:45.206Z,102806.06
2023-02-06T20:31:32.864Z,102800.81
2023-02-06T20:34:19.900Z,102799.09
2023-02-06T20:37:06.864Z,102801.75
2023-02-06T20:39:53.938Z,102793.81
2023-02-06T20:42:40.776Z,102763.91
2023-02-06T20:45:28.666Z,102790.38
2023-02-06T20:48:15.639Z,102775.50
2023-02-06T20:51:02.647Z,102784.28
2023-02-06T20:53:50.783Z,102770.22
2023-02-06T20:56:20.058Z,102787.78
2023-02-06T20:59:07.502Z,102751.69
2023-02-06T21:01:55.149Z,102780.75
2023-02-06T21:04:42.560Z,102775.53
2023-02-06T21:07:30.199Z,102776.38
2023-02-06T21:10:17.267Z,102777.28
2023-02-06T21:13:04.190Z,102760.66
2023-02-06T21:15:51.170Z,102765.91
2023-02-06T21:18:38.301Z,102749.97
2023-02-06T21:21:28.133Z,102729.84
2023-02-06T21:24:17.949Z,102751.00
2023-02-06T21:27:04.922Z,102757.13
2023-02-06T21:29:52.103Z,102750.94
2023-02-06T21:32:39.112Z,102757.16
2023-02-06T21:35:28.436Z,102758.03
2023-02-06T21:38:15.478Z,102758.88
2023-02-06T21:41:02.512Z,102758.03
2023-02-06T21:43:49.576Z,102749.19
2023-02-06T21:46:36.584Z,102762.44
2023-02-06T21:49:23.577Z,102721.91
2023-02-06T21:52:11.537Z,102746.63
2023-02-06T21:54:58.460Z,102754.53
2023-02-06T21:57:45.482Z,102748.34
2023-02-06T22:00:32.995Z,102726.38
2023-02-06T22:03:19.952Z,102747.50
2023-02-06T22:06:06.949Z,102737.88
2023-02-06T22:08:55.761Z,102733.50
2023-02-06T22:11:48.622Z,102720.34
2023-02-06T22:14:37.732Z,102722.97
2023-02-06T22:17:24.691Z,102728.28
2023-02-06T22:20:16.299Z,102726.56
2023-02-06T22:23:03.339Z,102709.84
2023-02-06T22:25:50.220Z,102718.69
2023-02-06T22:28:37.253Z,102719.56
2023-02-06T22:31:26.521Z,102688.81
2023-02-06T22:34:13.627Z,102669.38
2023-02-06T22:37:00.662Z,102713.41
2023-02-06T22:39:47.877Z,102716.97
2023-02-06T22:42:34.974Z,102709.09
2023-02-06T22:45:22.314Z,102714.38
2023-02-06T22:48:09.411Z,102723.16
2023-02-06T22:50:56.276Z,102708.28
2023-02-06T22:53:49.306Z,102709.16
2023-02-06T22:56:48.227Z,102694.28
2023-02-06T22:59:39.482Z,102681.13
2023-02-06T23:02:26.369Z,102688.16
2023-02-06T23:05:13.338Z,102684.69
2023-02-06T23:08:00.269Z,102690.84
2023-02-06T23:10:47.211Z,102688.16
2023-02-06T23:13:34.071Z,102686.38
2023-02-06T23:16:22.024Z,102689.06
2023-02-06T23:19:09.467Z,102682.94
2023-02-06T23:21:57.960Z,102680.31
2023-02-06T23:24:44.854Z,102678.53
2023-02-06T23:27:32.050Z,102675.94
2023-02-06T23:30:18.928Z,102679.44
2023-02-06T23:33:06.215Z,102687.34
2023-02-06T23:35:57.356Z,102671.53
2023-02-06T23:38:44.402Z,102682.97
2023-02-06T23:41:34.406Z,102662.69
2023-02-06T23:44:24.858Z,102686.47
2023-02-06T23:47:11.651Z,102690.88
2023-02-06T23:49:58.756Z,102697.00
2023-02-06T23:52:45.758Z,102700.50
2023-02-06T23:55:33.134Z,102584.34
2023-02-06T23:58:20.110Z,102610.81
